Terminal Aerodrome Forecast
Issued by NWS

Home | Current Version | Previous Version | Text Only | Print | Product List | Glossary On
Versions: 1 2 3 4 5 6 7 8 9 10 11 12 13 14
000
FTAK31 PANC 271726
TAFADL
TAF
PADL 271726Z 2718/2818 VRB03KT P6SM SCT120
     FM272200 17008KT P6SM SCT020 BKN080
     FM280900 VRB05KT 6SM BR SCT035
     FM281200 VRB02KT 6SM -SHRA BKN025 BKN060=

USA.gov is the U.S. government's official web portal to all federal, state and local government web resources and services.